Time;durP1;ratioP1;P1;durP2;ratioP2;P2;SDS_P1;SDS_P2;PMS_P1;PMS_P2;Temp;Humidity;BMP_temperature;BMP_pressure;BME280_temperature;BME280_humidity;BME280_pressure;Samples;Min_cycle;Max_cycle;Signal;HPM_P1;HPM_P2
2021/08/02 00:01:29;;;;;;;11.73;10.72;;;;;;;29.20;50.91;98967.69;1819370;77;21015;-63
2021/08/02 00:04:05;;;;;;;12.30;11.20;;;;;;;29.19;50.91;98976.22;1826276;77;21468;-66
2021/08/02 00:06:49;;;;;;;11.18;10.28;;;;;;;29.18;50.97;98975.39;1835988;77;21798;-62
2021/08/02 00:09:18;;;;;;;12.25;11.25;;;;;;;29.18;50.89;98978.70;1809368;78;21041;-63
2021/08/02 00:12:04;;;;;;;12.07;10.88;;;;;;;29.17;50.92;98986.10;1809505;77;21068;-63
2021/08/02 00:14:34;;;;;;;12.45;11.35;;;;;;;29.16;51.01;98987.77;1813554;78;21347;-63
2021/08/02 00:17:00;;;;;;;11.95;10.72;;;;;;;29.15;50.96;98978.77;1821787;77;21510;-62
2021/08/02 00:19:29;;;;;;;11.95;10.85;;;;;;;29.16;51.01;98967.27;1811279;78;21496;-62
2021/08/02 00:21:56;;;;;;;11.90;10.80;;;;;;;29.15;50.94;98960.99;1824621;77;21035;-62
2021/08/02 00:24:24;;;;;;;12.95;11.57;;;;;;;29.15;51.02;98972.50;1825070;76;21024;-62
2021/08/02 00:26:56;;;;;;;12.40;11.25;;;;;;;29.15;50.87;98973.30;1823334;78;21013;-63
2021/08/02 00:29:23;;;;;;;12.07;11.08;;;;;;;29.16;50.79;98978.20;1807420;77;21035;-63
2021/08/02 00:31:51;;;;;;;11.83;10.82;;;;;;;29.15;50.95;98977.40;1843284;77;21532;-64
2021/08/02 00:34:18;;;;;;;12.43;11.43;;;;;;;29.15;50.91;98967.83;1839322;76;21820;-62
2021/08/02 00:36:57;;;;;;;12.45;11.18;;;;;;;29.15;50.77;98961.56;1830631;77;21501;-61
2021/08/02 00:39:59;;;;;;;11.90;10.80;;;;;;;29.15;50.68;98950.05;1821099;77;20994;-62
2021/08/02 00:42:53;;;;;;;12.37;11.18;;;;;;;29.14;50.73;98937.48;1813407;77;21498;-62
2021/08/02 00:45:25;;;;;;;12.30;11.12;;;;;;;29.12;50.77;98938.36;1793175;78;21176;-62
2021/08/02 00:48:12;;;;;;;12.50;11.40;;;;;;;29.10;50.62;98926.09;1843235;77;20982;-63
2021/08/02 00:50:45;;;;;;;12.63;11.48;;;;;;;29.10;50.57;98923.36;1827622;76;21016;-63
2021/08/02 00:53:15;;;;;;;13.03;11.88;;;;;;;29.09;50.76;98916.27;1824147;77;21615;-63
2021/08/02 00:55:45;;;;;;;12.05;10.95;;;;;;;29.08;50.70;98914.09;1802218;78;21531;-62
2021/08/02 00:58:15;;;;;;;13.40;12.28;;;;;;;29.07;50.81;98911.13;1820481;77;21831;-63
2021/08/02 01:00:44;;;;;;;12.10;11.00;;;;;;;29.08;50.70;98914.66;1821946;78;21047;-62
2021/08/02 01:03:12;;;;;;;13.03;11.90;;;;;;;29.08;50.72;98906.46;1815971;77;21010;-63
2021/08/02 01:05:40;;;;;;;13.20;12.00;;;;;;;29.08;50.59;98906.46;1836945;77;21505;-64
2021/08/02 01:08:12;;;;;;;12.47;11.43;;;;;;;29.07;50.61;98908.93;1842043;76;21551;-62
2021/08/02 01:10:46;;;;;;;13.13;11.97;;;;;;;29.08;50.56;98895.52;1823881;77;21255;-61
2021/08/02 01:13:16;;;;;;;13.38;12.18;;;;;;;29.07;50.48;98889.25;1823543;77;21028;-63
2021/08/02 01:15:48;;;;;;;12.93;11.70;;;;;;;29.07;50.60;98882.95;1820852;78;20981;-62
2021/08/02 01:18:19;;;;;;;12.53;11.43;;;;;;;29.06;50.54;98879.42;1821882;78;21044;-62
2021/08/02 01:20:49;;;;;;;11.75;10.75;;;;;;;29.06;50.47;98882.72;1815383;77;21100;-63
2021/08/02 01:23:18;;;;;;;12.60;11.35;;;;;;;29.05;50.44;98876.42;1796673;78;21069;-64
2021/08/02 01:25:53;;;;;;;11.45;10.43;;;;;;;29.05;50.35;98863.32;1810025;76;21072;-63
2021/08/02 01:28:28;;;;;;;13.08;11.78;;;;;;;29.05;50.26;98861.39;1831649;77;21096;-63
2021/08/02 01:30:59;;;;;;;12.13;10.93;;;;;;;29.04;50.02;98864.45;1814346;77;21120;-62
2021/08/02 01:33:31;;;;;;;13.35;12.05;;;;;;;29.03;49.77;98870.46;1778705;78;21064;-62
2021/08/02 01:36:06;;;;;;;13.10;12.00;;;;;;;29.02;49.49;98873.77;1794043;78;21259;-63
2021/08/02 01:38:34;;;;;;;15.72;11.33;;;;;;;29.01;49.21;98878.17;1798589;78;21449;-62
2021/08/02 01:41:05;;;;;;;12.88;11.63;;;;;;;29.01;49.25;98872.70;1753028;80;21069;-62
2021/08/02 01:43:35;;;;;;;11.80;10.88;;;;;;;29.01;48.86;98863.13;1784298;80;21557;-63
2021/08/02 01:46:21;;;;;;;12.63;11.38;;;;;;;29.00;48.70;98857.44;1784326;79;21588;-63
2021/08/02 01:49:14;;;;;;;12.18;11.08;;;;;;;28.98;48.55;98853.64;1782837;80;21762;-63
2021/08/02 01:51:46;;;;;;;13.38;12.05;;;;;;;28.97;48.53;98851.21;1778655;79;21037;-62
2021/08/02 01:54:50;;;;;;;12.00;10.90;;;;;;;28.96;48.37;98841.41;1774533;80;21045;-63
2021/08/02 01:57:30;;;;;;;12.85;11.70;;;;;;;28.94;48.20;98836.81;1772581;79;21032;-63
2021/08/02 02:00:12;;;;;;;;;;;;;;;28.92;48.11;98836.33;1782362;80;21105;-63
2021/08/02 02:03:00;;;;;;;12.07;11.08;;;;;;;28.89;47.90;98840.47;1770075;80;21203;-63
2021/08/02 02:05:32;;;;;;;12.33;11.22;;;;;;;28.81;47.93;98838.49;1778965;79;21551;-62
2021/08/02 02:08:15;;;;;;;13.32;12.03;;;;;;;28.81;47.78;98841.23;1772636;80;21616;-62
2021/08/02 02:11:01;;;;;;;12.00;10.90;;;;;;;28.81;47.82;98835.76;1774212;79;21104;-63
2021/08/02 02:13:43;;;;;;;12.55;11.25;;;;;;;28.80;47.53;98825.93;1764376;79;21549;-63
2021/08/02 02:16:12;;;;;;;12.30;11.28;;;;;;;28.79;47.57;98819.66;1766397;80;21855;-63
2021/08/02 02:18:46;;;;;;;12.47;11.12;;;;;;;28.79;47.43;98820.23;1762371;80;21123;-64
2021/08/02 02:21:13;;;;;;;12.10;10.93;;;;;;;28.79;47.24;98828.43;1735051;80;21098;-63
2021/08/02 02:23:42;;;;;;;12.15;11.10;;;;;;;28.79;47.17;98831.97;1777381;79;21495;-62
2021/08/02 02:26:09;;;;;;;12.37;11.20;;;;;;;28.78;47.12;98844.03;1737877;80;21568;-62
2021/08/02 02:28:39;;;;;;;12.55;11.38;;;;;;;28.78;47.00;98844.56;1767865;79;21287;-62
2021/08/02 02:31:07;;;;;;;12.80;11.70;;;;;;;28.78;46.89;98846.77;1762062;79;21069;-63
2021/08/02 02:33:35;;;;;;;12.90;11.70;;;;;;;28.78;46.91;98844.03;1758396;79;21021;-63
2021/08/02 02:36:03;;;;;;;12.75;10.88;;;;;;;28.78;46.69;98849.49;1770837;79;21081;-62
2021/08/02 02:38:31;;;;;;;13.03;11.73;;;;;;;28.78;46.56;98859.06;1754328;79;21497;-63
2021/08/02 02:41:00;;;;;;;12.65;11.45;;;;;;;28.77;46.50;98858.00;1787106;79;21134;-63
2021/08/02 02:43:27;;;;;;;12.37;11.28;;;;;;;28.78;46.42;98872.72;1744693;80;20994;-62
2021/08/02 02:45:53;;;;;;;12.50;11.40;;;;;;;28.78;46.45;98873.26;1759351;79;21042;-63
2021/08/02 02:48:19;;;;;;;12.03;10.93;;;;;;;28.78;46.50;98875.45;1775569;79;21025;-64
2021/08/02 02:50:49;;;;;;;11.97;10.88;;;;;;;28.78;46.36;98866.43;1773190;80;21284;-62
2021/08/02 02:53:18;;;;;;;11.90;10.85;;;;;;;28.78;46.32;98875.99;1766809;79;21150;-61
2021/08/02 02:55:46;;;;;;;13.05;11.85;;;;;;;28.77;46.32;98875.20;1783640;79;21517;-63
2021/08/02 02:58:12;;;;;;;11.25;10.25;;;;;;;28.78;46.21;98882.83;1783612;79;21572;-62
2021/08/02 03:00:41;;;;;;;12.40;11.30;;;;;;;28.76;46.09;98872.23;1764087;79;21100;-62
2021/08/02 03:03:08;;;;;;;11.48;10.50;;;;;;;28.76;46.15;98877.70;1729534;81;21020;-63
2021/08/02 03:05:37;;;;;;;12.43;11.43;;;;;;;28.77;46.09;98881.23;1768240;79;21981;-63
2021/08/02 03:08:06;;;;;;;13.38;12.25;;;;;;;28.76;45.99;98871.40;1740577;80;21589;-62
2021/08/02 03:10:33;;;;;;;12.45;10.95;;;;;;;28.76;45.99;98892.72;1770290;79;21006;-63
2021/08/02 03:13:00;;;;;;;13.28;11.33;;;;;;;28.75;45.94;98884.27;1773076;79;21492;-63
2021/08/02 03:15:26;;;;;;;12.20;11.03;;;;;;;28.75;46.02;98888.36;1778656;78;21028;-63
2021/08/02 03:17:53;;;;;;;12.13;11.10;;;;;;;28.75;45.88;98893.03;1782695;78;21758;-62
2021/08/02 03:20:21;;;;;;;12.45;11.40;;;;;;;28.74;45.92;98894.96;1787006;79;21003;-62
2021/08/02 03:22:58;;;;;;;12.75;11.63;;;;;;;28.74;45.84;98897.70;1788381;80;21623;-63
2021/08/02 03:25:34;;;;;;;12.28;11.18;;;;;;;28.74;45.89;98899.59;1781222;78;21536;-62
2021/08/02 03:28:22;;;;;;;12.58;10.40;;;;;;;28.74;45.88;98894.96;1776752;80;21520;-62
2021/08/02 03:30:50;;;;;;;12.98;11.78;;;;;;;28.72;45.83;98902.63;1774360;78;21804;-63
2021/08/02 03:33:24;;;;;;;11.90;10.78;;;;;;;28.72;45.83;98904.00;1774380;79;21318;-62
2021/08/02 03:35:52;;;;;;;12.18;10.98;;;;;;;28.72;45.75;98909.47;1778012;80;21092;-62
2021/08/02 03:38:19;;;;;;;12.10;11.08;;;;;;;28.71;45.75;98899.67;1785072;78;21522;-63
2021/08/02 03:40:46;;;;;;;11.43;10.45;;;;;;;28.73;45.71;98884.34;1803282;78;21054;-62
2021/08/02 03:43:14;;;;;;;11.50;10.38;;;;;;;28.73;45.65;98874.77;1788615;78;22116;-62
2021/08/02 03:45:42;;;;;;;11.25;10.35;;;;;;;28.73;45.61;98870.10;1784062;78;22424;-63
2021/08/02 03:48:09;;;;;;;11.93;10.90;;;;;;;28.74;45.59;98864.91;1778627;80;21558;-62
2021/08/02 03:50:37;;;;;;;12.37;11.35;;;;;;;28.75;45.62;98862.40;1781338;80;21052;-62
2021/08/02 03:53:05;;;;;;;12.47;11.22;;;;;;;28.76;45.46;98857.20;1752858;80;21146;-63
2021/08/02 03:55:31;;;;;;;12.25;11.12;;;;;;;28.77;45.56;98858.00;1782192;78;21818;-63
2021/08/02 03:57:58;;;;;;;10.88;9.88;;;;;;;28.77;45.52;98849.80;1746933;80;21038;-62
2021/08/02 04:00:24;;;;;;;12.63;11.15;;;;;;;28.78;45.30;98842.66;1785960;78;21038;-62
2021/08/02 04:02:53;;;;;;;11.93;10.78;;;;;;;28.78;45.40;98839.93;1789772;78;20998;-65
2021/08/02 04:05:20;;;;;;;11.78;10.72;;;;;;;28.80;45.22;98842.33;1783000;78;21497;-64
2021/08/02 04:07:47;;;;;;;11.65;10.55;;;;;;;28.81;45.22;98845.33;1780213;78;21997;-65
2021/08/02 04:10:14;;;;;;;12.58;11.33;;;;;;;28.83;45.42;98844.45;1779896;78;21018;-63
2021/08/02 04:12:40;;;;;;;11.80;10.70;;;;;;;28.82;45.62;98839.55;1780606;80;21664;-63
2021/08/02 04:15:09;;;;;;;12.55;11.35;;;;;;;28.84;45.81;98843.34;1781735;78;21045;-63
2021/08/02 04:17:36;;;;;;;11.63;10.68;;;;;;;28.85;46.03;98838.11;1784435;78;21611;-63
2021/08/02 04:20:05;;;;;;;11.90;10.90;;;;;;;28.86;46.17;98829.34;1791051;79;21085;-64
2021/08/02 04:22:31;;;;;;;11.33;10.13;;;;;;;28.86;46.41;98828.81;1771839;80;21966;-62
2021/08/02 04:24:58;;;;;;;11.63;10.45;;;;;;;28.88;46.60;98833.94;1773965;80;21045;-63
2021/08/02 04:27:24;;;;;;;11.70;10.70;;;;;;;28.89;46.73;98828.73;1784681;80;21445;-61
2021/08/02 04:29:52;;;;;;;11.35;10.32;;;;;;;28.88;46.81;98834.77;1780280;79;21590;-63
2021/08/02 04:32:18;;;;;;;11.38;10.38;;;;;;;28.89;47.02;98837.73;1779710;80;21350;-62
2021/08/02 04:34:44;;;;;;;11.68;10.63;;;;;;;28.88;47.15;98826.57;1797017;78;21365;-62
2021/08/02 04:37:12;;;;;;;11.28;10.28;;;;;;;28.89;47.26;98805.50;1749810;81;21165;-63
2021/08/02 04:39:39;;;;;;;12.05;10.93;;;;;;;28.90;47.42;98790.16;1777397;80;21192;-64
2021/08/02 04:42:06;;;;;;;10.90;9.90;;;;;;;28.89;47.56;98804.94;1781867;78;21063;-62
2021/08/02 04:44:33;;;;;;;11.18;10.18;;;;;;;28.90;47.71;98819.43;1756991;79;21107;-64
2021/08/02 04:46:59;;;;;;;12.30;10.80;;;;;;;28.91;47.70;98827.30;1778829;79;21529;-63
2021/08/02 04:49:26;;;;;;;10.75;9.73;;;;;;;28.91;47.78;98837.43;1796056;78;21033;-64
2021/08/02 04:51:52;;;;;;;10.48;9.58;;;;;;;28.92;47.77;98825.39;1787415;79;21619;-63
2021/08/02 04:54:20;;;;;;;10.45;9.55;;;;;;;28.93;47.97;98816.05;1785140;78;21576;-63
2021/08/02 04:56:47;;;;;;;11.38;10.38;;;;;;;28.92;48.27;98826.76;1792522;78;21143;-62
2021/08/02 04:59:13;;;;;;;11.05;9.93;;;;;;;28.93;48.33;98822.89;1784105;80;21021;-63
2021/08/02 05:01:40;;;;;;;10.30;9.45;;;;;;;28.93;48.28;98804.55;1782926;78;21592;-63
2021/08/02 05:04:06;;;;;;;11.63;10.65;;;;;;;28.95;48.40;98794.68;1782501;78;21030;-64
2021/08/02 05:06:32;;;;;;;10.10;9.10;;;;;;;28.97;48.49;98797.34;1779218;80;21069;-64
2021/08/02 05:08:59;;;;;;;10.18;9.33;;;;;;;28.97;48.60;98796.54;1782541;78;21733;-64
2021/08/02 05:11:25;;;;;;;10.95;10.03;;;;;;;28.97;48.72;98790.50;1793082;78;22044;-65
2021/08/02 05:13:53;;;;;;;10.03;9.10;;;;;;;28.99;48.81;98811.53;1756708;80;21108;-63
2021/08/02 05:16:19;;;;;;;11.12;10.18;;;;;;;28.99;48.94;98800.59;1784166;78;21008;-64
2021/08/02 05:18:47;;;;;;;11.15;10.03;;;;;;;29.00;49.00;98795.36;1757570;80;21060;-64
2021/08/02 05:21:14;;;;;;;10.93;10.03;;;;;;;29.02;49.06;98771.81;1768005;80;21134;-63
2021/08/02 05:23:40;;;;;;;10.18;9.18;;;;;;;29.02;49.17;98773.17;1767899;80;21031;-64
2021/08/02 05:26:07;;;;;;;10.63;9.65;;;;;;;29.03;49.38;98784.34;1763631;80;21093;-64
2021/08/02 05:28:34;;;;;;;11.33;10.15;;;;;;;29.04;49.55;98794.74;1773151;79;21099;-65
2021/08/02 05:31:01;;;;;;;9.83;9.03;;;;;;;29.05;49.74;98785.41;1766076;80;21039;-64
2021/08/02 05:33:28;;;;;;;11.00;10.03;;;;;;;29.05;49.83;98790.30;1777625;79;21140;-63
2021/08/02 05:35:54;;;;;;;10.58;9.65;;;;;;;29.05;49.96;98776.63;1778602;80;21509;-63
2021/08/02 05:38:21;;;;;;;10.78;9.75;;;;;;;29.06;50.09;98766.52;1782481;79;21006;-65
2021/08/02 05:40:49;;;;;;;10.13;9.23;;;;;;;29.06;50.02;98761.86;1784012;79;20989;-62
2021/08/02 05:43:15;;;;;;;10.55;9.65;;;;;;;29.07;50.07;98759.92;1783416;79;21647;-64
2021/08/02 05:45:41;;;;;;;11.03;10.03;;;;;;;29.07;50.21;98759.92;1761411;80;21069;-62
2021/08/02 05:48:08;;;;;;;10.63;9.70;;;;;;;29.09;50.16;98746.73;1767419;79;21043;-63
2021/08/02 05:50:36;;;;;;;11.00;10.10;;;;;;;29.10;50.27;98744.27;1762808;80;21049;-63
2021/08/02 05:53:02;;;;;;;10.82;9.83;;;;;;;29.10;50.40;98742.90;1774876;80;21589;-64
2021/08/02 05:55:29;;;;;;;10.68;9.78;;;;;;;29.11;50.45;98736.29;1766006;79;21096;-64
2021/08/02 05:57:55;;;;;;;10.43;9.43;;;;;;;29.12;50.45;98749.69;1764279;79;21112;-63
2021/08/02 06:00:22;;;;;;;10.70;9.75;;;;;;;29.12;50.57;98737.38;1759460;79;21006;-65
2021/08/02 06:02:48;;;;;;;10.98;9.90;;;;;;;29.14;50.62;98735.13;1757114;80;21528;-63
2021/08/02 06:05:14;;;;;;;10.40;9.50;;;;;;;29.15;50.74;98751.00;1761446;79;21014;-63
2021/08/02 06:07:44;;;;;;;9.75;8.95;;;;;;;29.16;50.71;98747.13;1761456;80;21088;-65
2021/08/02 06:10:11;;;;;;;13.28;12.03;;;;;;;29.18;51.00;98735.31;1771318;79;21113;-65
2021/08/02 06:12:37;;;;;;;13.53;12.30;;;;;;;29.18;51.88;98742.95;1738521;80;21572;-65
2021/08/02 06:15:06;;;;;;;15.48;14.07;;;;;;;29.20;53.04;98746.17;1777713;78;21087;-66
2021/08/02 06:17:32;;;;;;;14.10;12.80;;;;;;;29.21;53.78;98748.37;1785295;78;21051;-65
2021/08/02 06:19:59;;;;;;;17.05;12.95;;;;;;;29.19;54.43;98750.05;1778621;78;21480;-65
2021/08/02 06:22:25;;;;;;;15.65;13.68;;;;;;;29.19;54.84;98751.98;1748884;80;21126;-66
2021/08/02 06:24:52;;;;;;;13.95;12.47;;;;;;;29.19;55.16;98745.94;1760132;79;21541;-66
2021/08/02 06:29:39;;;;;;;15.85;13.75;;;;;;;29.24;55.72;98751.82;1873846;74;22615;-75
2021/08/02 06:32:07;;;;;;;16.48;13.68;;;;;;;29.16;55.89;98757.50;1834866;77;21045;-65
2021/08/02 06:34:34;;;;;;;14.28;12.88;;;;;;;29.18;56.14;98751.16;1847825;77;21123;-68
2021/08/02 06:37:01;;;;;;;16.32;14.73;;;;;;;29.22;56.41;98748.59;1824279;77;20921;-63
2021/08/02 06:39:27;;;;;;;16.05;13.80;;;;;;;29.24;56.44;98746.92;1842377;77;20973;-63
2021/08/02 06:41:53;;;;;;;14.87;13.40;;;;;;;29.23;56.57;98746.13;1834332;76;21660;-66
2021/08/02 06:44:20;;;;;;;15.93;12.90;;;;;;;29.24;56.73;98743.62;1829286;77;20996;-64
2021/08/02 06:46:46;;;;;;;16.48;12.80;;;;;;;29.25;56.74;98751.28;1829929;77;21547;-65
2021/08/02 06:49:13;;;;;;;13.53;12.10;;;;;;;29.25;56.62;98740.34;1833103;77;20949;-66
2021/08/02 06:51:39;;;;;;;16.40;12.88;;;;;;;29.27;56.57;98740.83;1829540;77;20991;-66
2021/08/02 06:54:06;;;;;;;15.65;13.08;;;;;;;29.27;56.51;98759.41;1832140;75;21635;-64
2021/08/02 06:56:32;;;;;;;15.60;12.60;;;;;;;29.27;56.55;98736.73;1835954;76;21030;-65
2021/08/02 06:58:58;;;;;;;14.65;13.03;;;;;;;29.27;56.50;98738.09;1844110;76;21146;-64
2021/08/02 07:01:25;;;;;;;14.18;12.88;;;;;;;29.29;56.48;98720.23;1850010;77;21074;-64
2021/08/02 07:03:52;;;;;;;14.18;12.78;;;;;;;29.32;56.40;98720.16;1851742;77;21036;-65
2021/08/02 07:06:18;;;;;;;14.30;12.80;;;;;;;29.35;56.63;98719.53;1842288;77;21523;-65
2021/08/02 07:08:45;;;;;;;14.25;12.50;;;;;;;29.37;56.73;98748.17;1850874;77;21029;-67
2021/08/02 07:11:11;;;;;;;16.75;13.00;;;;;;;29.41;56.89;98727.83;1843707;76;21094;-69
2021/08/02 07:13:38;;;;;;;14.55;12.60;;;;;;;29.43;56.92;98731.62;1835725;77;21053;-66
2021/08/02 07:16:05;;;;;;;14.47;13.03;;;;;;;29.45;56.91;98734.27;1840951;76;21075;-65
2021/08/02 07:18:32;;;;;;;14.80;12.95;;;;;;;29.47;56.73;98733.39;1836635;77;21580;-63
2021/08/02 07:20:58;;;;;;;14.03;12.58;;;;;;;29.50;56.60;98732.77;1840810;77;21104;-64
2021/08/02 07:23:24;;;;;;;13.65;12.37;;;;;;;29.51;56.45;98743.94;1838360;77;21091;-64
2021/08/02 07:25:51;;;;;;;16.07;12.85;;;;;;;29.55;56.42;98733.17;1837334;77;21131;-68
2021/08/02 07:28:17;;;;;;;13.68;12.33;;;;;;;29.57;56.12;98751.44;1843487;77;20990;-65
2021/08/02 07:30:43;;;;;;;12.40;11.15;;;;;;;29.59;56.21;98745.91;1797205;78;21579;-65
2021/08/02 07:33:10;;;;;;;14.15;11.95;;;;;;;29.63;55.81;98746.62;1804186;78;21068;-64
2021/08/02 07:35:36;;;;;;;14.75;13.35;;;;;;;29.64;55.62;98748.25;1763354;79;21096;-66
2021/08/02 07:38:03;;;;;;;13.20;11.80;;;;;;;29.66;55.50;98746.00;1849174;77;21017;-65
2021/08/02 07:40:30;;;;;;;12.10;11.00;;;;;;;29.67;55.53;98739.39;1843917;77;21063;-63
2021/08/02 07:42:57;;;;;;;12.70;11.48;;;;;;;29.68;55.53;98749.22;1839504;77;21106;-65
2021/08/02 07:45:23;;;;;;;16.10;11.30;;;;;;;29.69;55.46;98755.75;1848390;77;21584;-66
2021/08/02 07:47:49;;;;;;;13.45;11.35;;;;;;;29.72;54.72;98752.93;1845362;76;21801;-64
2021/08/02 07:50:16;;;;;;;12.13;10.85;;;;;;;29.73;54.57;98756.75;1843090;76;21049;-64
2021/08/02 07:52:43;;;;;;;12.55;11.38;;;;;;;29.75;54.11;98757.81;1844796;76;21100;-65
2021/08/02 07:55:13;;;;;;;13.28;11.93;;;;;;;29.79;53.58;98758.78;1841634;77;21087;-64
2021/08/02 07:57:40;;;;;;;16.35;10.98;;;;;;;29.81;53.45;98759.84;1839990;76;21073;-65
2021/08/02 08:00:08;;;;;;;12.33;10.53;;;;;;;29.83;52.54;98762.48;1852172;76;21906;-65
2021/08/02 08:02:39;;;;;;;14.50;10.13;;;;;;;29.84;51.74;98775.03;1845965;76;21111;-64
2021/08/02 08:05:06;;;;;;;11.20;10.00;;;;;;;29.85;51.31;98775.29;1850041;77;21103;-65
2021/08/02 08:07:44;;;;;;;12.23;9.68;;;;;;;29.87;51.02;98758.55;1843279;76;21083;-65
2021/08/02 08:10:12;;;;;;;12.37;9.48;;;;;;;29.89;50.80;98756.30;1847045;76;21462;-64
2021/08/02 08:12:39;;;;;;;11.33;10.32;;;;;;;29.90;50.76;98772.41;1846564;77;21141;-67
2021/08/02 08:15:07;;;;;;;13.48;9.73;;;;;;;29.92;50.98;98763.31;1842892;77;20962;-64
2021/08/02 08:17:33;;;;;;;11.50;10.10;;;;;;;29.95;50.57;98795.50;1849890;77;21053;-65
2021/08/02 08:19:59;;;;;;;14.13;9.85;;;;;;;29.98;49.84;98772.97;1845894;77;21572;-65
2021/08/02 08:22:27;;;;;;;11.90;10.53;;;;;;;30.01;49.69;98776.20;1849516;77;21040;-65
2021/08/02 08:24:53;;;;;;;11.45;9.23;;;;;;;30.03;49.96;98760.25;1846229;76;21102;-67
2021/08/02 08:27:20;;;;;;;17.87;9.10;;;;;;;30.05;50.26;98813.55;1838753;77;21512;-63
2021/08/02 08:29:46;;;;;;;13.93;8.83;;;;;;;30.07;49.60;98768.06;1836791;76;21049;-67
2021/08/02 08:32:13;;;;;;;10.85;7.78;;;;;;;30.08;48.65;98793.77;1841106;77;21028;-67
2021/08/02 08:34:39;;;;;;;11.90;7.65;;;;;;;30.09;47.37;98783.61;1841629;75;21048;-65
2021/08/02 08:37:06;;;;;;;13.45;7.95;;;;;;;30.09;46.34;98770.70;1839437;77;21768;-67
2021/08/02 08:39:32;;;;;;;8.55;7.00;;;;;;;30.07;46.00;98783.92;1840983;76;21521;-65
2021/08/02 08:41:59;;;;;;;8.95;7.20;;;;;;;30.09;45.87;98783.61;1844004;76;20971;-68
2021/08/02 08:44:28;;;;;;;10.63;6.97;;;;;;;30.10;45.97;98801.09;1846602;77;21065;-67
2021/08/02 08:46:56;;;;;;;8.35;7.30;;;;;;;30.13;45.56;98781.83;1844224;76;21095;-66
2021/08/02 08:49:23;;;;;;;9.80;6.83;;;;;;;30.14;45.68;98802.63;1849563;77;21131;-67
2021/08/02 08:51:50;;;;;;;11.35;8.35;;;;;;;30.16;45.76;98792.16;1834580;77;21500;-67
2021/08/02 08:54:16;;;;;;;8.28;7.50;;;;;;;30.19;45.66;98784.65;1839173;77;21003;-67
2021/08/02 08:56:43;;;;;;;11.75;7.92;;;;;;;30.22;45.88;98790.06;1841565;77;21072;-66
2021/08/02 08:59:13;;;;;;;10.53;7.83;;;;;;;30.25;45.74;98794.34;1841530;77;21021;-68
2021/08/02 09:01:37;;;;;;;12.03;6.95;;;;;;;30.28;45.71;98763.55;1837484;77;21235;-67
2021/08/02 09:04:05;;;;;;;12.20;6.78;;;;;;;30.32;46.32;98786.45;1840583;77;21072;-70
2021/08/02 09:06:35;;;;;;;10.72;7.87;;;;;;;30.37;46.47;98761.65;1841199;77;21095;-67
2021/08/02 09:09:02;;;;;;;10.05;8.18;;;;;;;30.42;46.94;98803.13;1813103;77;21553;-69
2021/08/02 09:11:30;;;;;;;9.33;7.08;;;;;;;30.45;47.07;98798.96;1844982;77;21041;-66
2021/08/02 09:13:57;;;;;;;8.63;7.25;;;;;;;30.48;46.77;98765.41;1841383;77;22003;-67
2021/08/02 09:16:27;;;;;;;8.83;7.50;;;;;;;30.50;47.58;98758.50;1839682;76;21017;-67
2021/08/02 09:19:13;;;;;;;9.05;7.22;;;;;;;30.51;47.35;98787.50;1839504;77;21080;-68
2021/08/02 09:21:45;;;;;;;7.70;6.97;;;;;;;30.53;47.41;98783.87;1837814;77;21084;-67
2021/08/02 09:24:12;;;;;;;8.63;7.20;;;;;;;30.55;47.69;98776.70;1840145;77;21099;-68
2021/08/02 09:26:40;;;;;;;8.15;6.90;;;;;;;30.56;48.02;98786.55;1842435;77;21106;-67
2021/08/02 09:29:12;;;;;;;9.98;6.87;;;;;;;30.58;47.18;98785.66;1829515;77;21473;-67
2021/08/02 09:31:39;;;;;;;7.65;6.90;;;;;;;30.61;47.55;98809.66;1826289;77;21127;-67
2021/08/02 09:34:07;;;;;;;9.88;6.70;;;;;;;30.64;46.98;98791.20;1821608;77;21397;-66
2021/08/02 09:36:46;;;;;;;8.55;6.17;;;;;;;30.67;45.57;98793.84;1834511;77;21108;-64
2021/08/02 09:39:14;;;;;;;14.78;6.83;;;;;;;30.67;45.06;98796.02;1825417;77;21065;-65
2021/08/02 09:41:43;;;;;;;9.93;6.05;;;;;;;30.70;44.74;98792.64;1825015;77;21024;-66
2021/08/02 09:44:22;;;;;;;8.68;6.15;;;;;;;30.74;44.75;98777.16;1829184;77;21116;-66
2021/08/02 09:47:08;;;;;;;11.80;8.18;;;;;;;30.80;45.51;98787.95;1824391;77;21092;-66
2021/08/02 09:49:48;;;;;;;9.60;7.40;;;;;;;30.84;45.47;98784.80;1831987;77;21049;-64
2021/08/02 09:52:15;;;;;;;11.97;7.55;;;;;;;30.90;45.32;98790.38;1832753;76;21177;-67
2021/08/02 09:54:42;;;;;;;10.93;7.80;;;;;;;30.95;46.03;98796.48;1832163;77;21558;-67
2021/08/02 09:57:08;;;;;;;9.35;7.10;;;;;;;31.02;45.95;98813.00;1826033;77;20985;-67
2021/08/02 09:59:42;;;;;;;8.08;6.72;;;;;;;31.06;45.22;98804.36;1824389;76;21029;-67
2021/08/02 10:02:09;;;;;;;10.35;6.25;;;;;;;31.11;45.54;98811.84;1830407;77;21096;-67
2021/08/02 10:04:35;;;;;;;8.70;6.40;;;;;;;31.15;45.63;98816.91;1827224;76;21100;-68
2021/08/02 10:07:03;;;;;;;10.03;6.12;;;;;;;31.18;45.47;98824.24;1826208;77;21022;-66
2021/08/02 10:09:30;;;;;;;7.40;6.30;;;;;;;31.22;44.55;98829.34;1781480;77;21049;-66
2021/08/02 10:11:57;;;;;;;11.15;6.45;;;;;;;31.25;45.07;98816.32;1762530;77;21056;-66
2021/08/02 10:14:31;;;;;;;6.62;5.75;;;;;;;31.29;45.80;98817.27;1825053;77;21077;-65
2021/08/02 10:17:05;;;;;;;11.12;6.75;;;;;;;31.31;44.87;98824.06;1826046;76;21182;-67
2021/08/02 10:19:40;;;;;;;8.68;6.25;;;;;;;31.36;45.28;98828.55;1828217;76;21122;-67
2021/08/02 10:22:06;;;;;;;7.75;5.87;;;;;;;31.40;44.24;98835.56;1830603;77;21505;-65
2021/08/02 10:24:33;;;;;;;15.95;6.30;;;;;;;31.44;44.04;98833.77;1828991;77;21018;-68
2021/08/02 10:27:01;;;;;;;6.05;5.37;;;;;;;31.47;43.59;98847.67;1772141;77;21035;-70
2021/08/02 10:29:38;;;;;;;7.62;5.78;;;;;;;31.50;43.39;98836.02;1823301;77;21933;-65
2021/08/02 10:32:06;;;;;;;10.10;5.37;;;;;;;31.55;43.96;98838.59;1828035;77;21074;-67
2021/08/02 10:34:32;;;;;;;7.37;5.45;;;;;;;31.58;43.66;98871.42;1826637;77;21076;-67
2021/08/02 10:37:05;;;;;;;6.62;5.40;;;;;;;31.62;43.11;98847.70;1824289;77;21572;-64
2021/08/02 10:39:33;;;;;;;8.50;5.20;;;;;;;31.65;43.19;98826.44;1827358;77;21037;-65
2021/08/02 10:42:14;;;;;;;6.78;5.55;;;;;;;31.66;43.62;98845.91;1828652;77;21068;-66
2021/08/02 10:44:53;;;;;;;7.37;5.07;;;;;;;31.69;43.65;98870.51;1827342;77;21095;-68
2021/08/02 10:47:20;;;;;;;7.15;5.25;;;;;;;31.70;43.66;98824.09;1826525;77;21006;-67
2021/08/02 10:49:50;;;;;;;7.50;5.28;;;;;;;31.72;43.43;98817.70;1823600;77;21128;-68
2021/08/02 10:52:27;;;;;;;7.28;5.87;;;;;;;31.77;43.25;98840.83;1829196;77;21072;-68
2021/08/02 10:54:53;;;;;;;6.90;5.37;;;;;;;31.82;43.13;98822.80;1823000;77;21062;-67
2021/08/02 10:57:23;;;;;;;7.28;5.12;;;;;;;31.89;43.07;98820.34;1834269;77;21025;-69
2021/08/02 10:59:49;;;;;;;9.95;5.15;;;;;;;31.97;42.92;98835.70;1827445;77;21052;-67
2021/08/02 11:02:16;;;;;;;9.40;4.85;;;;;;;32.05;42.78;98836.27;1837364;77;21166;-68
2021/08/02 11:04:42;;;;;;;9.30;5.37;;;;;;;32.13;42.77;98846.39;1831320;77;21099;-70
2021/08/02 11:07:09;;;;;;;8.40;5.12;;;;;;;32.21;42.66;98841.40;1837766;77;21528;-68
2021/08/02 11:09:36;;;;;;;8.03;4.78;;;;;;;32.30;42.44;98838.60;1830468;77;21533;-67
2021/08/02 11:12:15;;;;;;;6.00;5.40;;;;;;;32.39;42.22;98839.31;1829844;77;21068;-68
2021/08/02 11:14:51;;;;;;;9.95;5.12;;;;;;;32.46;42.05;98836.84;1833033;77;21091;-68
2021/08/02 11:17:21;;;;;;;7.17;4.95;;;;;;;32.56;41.95;98837.58;1832547;77;21537;-68
2021/08/02 11:20:00;;;;;;;7.45;5.40;;;;;;;32.62;39.82;98881.62;1839037;77;20963;-66
2021/08/02 11:22:26;;;;;;;7.25;5.40;;;;;;;32.57;39.84;98848.28;1831979;77;21530;-65
2021/08/02 11:24:56;;;;;;;6.97;5.15;;;;;;;32.46;40.15;98827.80;1833354;77;21052;-70
2021/08/02 11:27:22;;;;;;;5.97;5.03;;;;;;;32.32;40.45;98833.00;1832644;77;21621;-69
2021/08/02 11:29:51;;;;;;;5.72;4.90;;;;;;;32.22;44.84;98822.41;1835950;77;21624;-69
2021/08/02 11:32:19;;;;;;;7.03;5.30;;;;;;;32.17;47.48;98822.60;1843172;77;21083;-68
2021/08/02 11:34:55;;;;;;;6.97;4.87;;;;;;;32.19;46.87;98814.03;1845884;77;20992;-66